sensor_id;sensor_type;location;lat;lon;timestamp;P1;durP1;ratioP1;P2;durP2;ratioP2
6671;SDS011;3372;48.690;12.362;2024-01-15T00:02:08;32.85;;;16.70;;
6671;SDS011;3372;48.690;12.362;2024-01-15T00:04:40;33.75;;;15.80;;
6671;SDS011;3372;48.690;12.362;2024-01-15T00:07:06;31.15;;;15.80;;
6671;SDS011;3372;48.690;12.362;2024-01-15T00:09:32;30.60;;;15.23;;
6671;SDS011;3372;48.690;12.362;2024-01-15T00:11:58;29.40;;;14.73;;
6671;SDS011;3372;48.690;12.362;2024-01-15T00:14:25;29.20;;;15.13;;
6671;SDS011;3372;48.690;12.362;2024-01-15T00:16:50;27.08;;;13.60;;
6671;SDS011;3372;48.690;12.362;2024-01-15T00:19:16;25.50;;;13.38;;
6671;SDS011;3372;48.690;12.362;2024-01-15T00:21:42;28.77;;;14.55;;
6671;SDS011;3372;48.690;12.362;2024-01-15T00:24:08;26.05;;;13.15;;
6671;SDS011;3372;48.690;12.362;2024-01-15T00:26:34;23.30;;;12.82;;
6671;SDS011;3372;48.690;12.362;2024-01-15T00:28:59;24.45;;;13.57;;
6671;SDS011;3372;48.690;12.362;2024-01-15T00:31:25;30.50;;;14.45;;
6671;SDS011;3372;48.690;12.362;2024-01-15T00:33:51;28.75;;;14.20;;
6671;SDS011;3372;48.690;12.362;2024-01-15T00:36:17;24.42;;;13.32;;
6671;SDS011;3372;48.690;12.362;2024-01-15T00:38:43;25.65;;;13.68;;
6671;SDS011;3372;48.690;12.362;2024-01-15T00:41:09;24.63;;;12.68;;
6671;SDS011;3372;48.690;12.362;2024-01-15T00:43:34;25.00;;;12.93;;
6671;SDS011;3372;48.690;12.362;2024-01-15T00:46:03;24.35;;;12.77;;
6671;SDS011;3372;48.690;12.362;2024-01-15T00:48:29;25.90;;;13.40;;
6671;SDS011;3372;48.690;12.362;2024-01-15T00:50:55;26.83;;;14.02;;
6671;SDS011;3372;48.690;12.362;2024-01-15T00:53:20;23.65;;;12.48;;
6671;SDS011;3372;48.690;12.362;2024-01-15T00:55:49;25.00;;;13.15;;
6671;SDS011;3372;48.690;12.362;2024-01-15T00:58:15;27.20;;;13.90;;
6671;SDS011;3372;48.690;12.362;2024-01-15T01:00:41;25.75;;;14.73;;
6671;SDS011;3372;48.690;12.362;2024-01-15T01:03:07;29.10;;;14.38;;
6671;SDS011;3372;48.690;12.362;2024-01-15T01:05:33;26.65;;;13.63;;
6671;SDS011;3372;48.690;12.362;2024-01-15T01:08:00;29.58;;;14.43;;
6671;SDS011;3372;48.690;12.362;2024-01-15T01:10:27;27.65;;;15.25;;
6671;SDS011;3372;48.690;12.362;2024-01-15T01:12:53;32.60;;;14.82;;
6671;SDS011;3372;48.690;12.362;2024-01-15T01:15:18;34.50;;;15.60;;
6671;SDS011;3372;48.690;12.362;2024-01-15T01:17:44;34.10;;;15.82;;
6671;SDS011;3372;48.690;12.362;2024-01-15T01:20:11;33.22;;;13.70;;
6671;SDS011;3372;48.690;12.362;2024-01-15T01:22:36;27.70;;;13.65;;
6671;SDS011;3372;48.690;12.362;2024-01-15T01:25:02;31.48;;;14.93;;
6671;SDS011;3372;48.690;12.362;2024-01-15T01:27:28;33.72;;;15.82;;
6671;SDS011;3372;48.690;12.362;2024-01-15T01:29:53;32.28;;;15.43;;
6671;SDS011;3372;48.690;12.362;2024-01-15T01:32:19;34.63;;;15.13;;
6671;SDS011;3372;48.690;12.362;2024-01-15T01:34:45;32.20;;;16.38;;
6671;SDS011;3372;48.690;12.362;2024-01-15T01:37:11;28.23;;;14.73;;
6671;SDS011;3372;48.690;12.362;2024-01-15T01:39:40;38.78;;;16.00;;
6671;SDS011;3372;48.690;12.362;2024-01-15T01:42:06;37.28;;;15.15;;
6671;SDS011;3372;48.690;12.362;2024-01-15T01:44:32;31.20;;;14.02;;
6671;SDS011;3372;48.690;12.362;2024-01-15T01:47:01;34.90;;;15.82;;
6671;SDS011;3372;48.690;12.362;2024-01-15T01:49:27;35.97;;;15.13;;
6671;SDS011;3372;48.690;12.362;2024-01-15T01:51:54;35.80;;;13.60;;
6671;SDS011;3372;48.690;12.362;2024-01-15T01:54:23;32.33;;;14.98;;
6671;SDS011;3372;48.690;12.362;2024-01-15T01:56:50;32.55;;;16.50;;
6671;SDS011;3372;48.690;12.362;2024-01-15T01:59:16;31.85;;;15.68;;
6671;SDS011;3372;48.690;12.362;2024-01-15T02:01:42;34.35;;;16.85;;
6671;SDS011;3372;48.690;12.362;2024-01-15T02:04:09;28.63;;;13.55;;
6671;SDS011;3372;48.690;12.362;2024-01-15T02:06:35;35.50;;;15.23;;
6671;SDS011;3372;48.690;12.362;2024-01-15T02:09:01;28.50;;;13.95;;
6671;SDS011;3372;48.690;12.362;2024-01-15T02:11:26;30.30;;;14.55;;
6671;SDS011;3372;48.690;12.362;2024-01-15T02:13:55;34.38;;;14.88;;
6671;SDS011;3372;48.690;12.362;2024-01-15T02:16:20;31.58;;;14.68;;
6671;SDS011;3372;48.690;12.362;2024-01-15T02:18:46;29.67;;;14.40;;
6671;SDS011;3372;48.690;12.362;2024-01-15T02:21:11;37.17;;;16.10;;
6671;SDS011;3372;48.690;12.362;2024-01-15T02:23:37;28.90;;;14.55;;
6671;SDS011;3372;48.690;12.362;2024-01-15T02:26:07;35.97;;;16.02;;
6671;SDS011;3372;48.690;12.362;2024-01-15T02:28:33;35.65;;;15.60;;
6671;SDS011;3372;48.690;12.362;2024-01-15T02:30:59;35.10;;;15.10;;
6671;SDS011;3372;48.690;12.362;2024-01-15T02:33:24;33.70;;;15.98;;
6671;SDS011;3372;48.690;12.362;2024-01-15T02:35:50;32.83;;;14.63;;
6671;SDS011;3372;48.690;12.362;2024-01-15T02:38:16;37.47;;;16.73;;
6671;SDS011;3372;48.690;12.362;2024-01-15T02:40:42;35.38;;;15.63;;
6671;SDS011;3372;48.690;12.362;2024-01-15T02:43:09;35.90;;;15.10;;
6671;SDS011;3372;48.690;12.362;2024-01-15T02:45:34;33.08;;;15.05;;
6671;SDS011;3372;48.690;12.362;2024-01-15T02:48:00;29.23;;;14.30;;
6671;SDS011;3372;48.690;12.362;2024-01-15T02:50:26;35.17;;;14.45;;
6671;SDS011;3372;48.690;12.362;2024-01-15T02:52:51;32.45;;;14.27;;
6671;SDS011;3372;48.690;12.362;2024-01-15T02:55:17;34.90;;;14.35;;
6671;SDS011;3372;48.690;12.362;2024-01-15T02:57:43;35.10;;;14.82;;
6671;SDS011;3372;48.690;12.362;2024-01-15T03:00:08;29.45;;;13.68;;
6671;SDS011;3372;48.690;12.362;2024-01-15T03:02:38;31.85;;;13.57;;
6671;SDS011;3372;48.690;12.362;2024-01-15T03:05:08;34.60;;;14.48;;
6671;SDS011;3372;48.690;12.362;2024-01-15T03:07:37;30.88;;;13.65;;
6671;SDS011;3372;48.690;12.362;2024-01-15T03:10:03;33.83;;;15.75;;
6671;SDS011;3372;48.690;12.362;2024-01-15T03:12:29;30.35;;;13.82;;
6671;SDS011;3372;48.690;12.362;2024-01-15T03:14:55;27.05;;;12.68;;
6671;SDS011;3372;48.690;12.362;2024-01-15T03:17:20;31.75;;;14.90;;
6671;SDS011;3372;48.690;12.362;2024-01-15T03:19:46;29.33;;;14.20;;
6671;SDS011;3372;48.690;12.362;2024-01-15T03:22:12;31.38;;;13.23;;
6671;SDS011;3372;48.690;12.362;2024-01-15T03:24:37;25.52;;;11.43;;
6671;SDS011;3372;48.690;12.362;2024-01-15T03:27:03;30.38;;;12.20;;
6671;SDS011;3372;48.690;12.362;2024-01-15T03:29:29;29.85;;;11.38;;
6671;SDS011;3372;48.690;12.362;2024-01-15T03:31:54;26.25;;;12.43;;
6671;SDS011;3372;48.690;12.362;2024-01-15T03:34:20;25.88;;;11.15;;
6671;SDS011;3372;48.690;12.362;2024-01-15T03:36:45;27.40;;;12.80;;
6671;SDS011;3372;48.690;12.362;2024-01-15T03:39:11;26.25;;;12.30;;
6671;SDS011;3372;48.690;12.362;2024-01-15T03:41:36;27.92;;;12.25;;
6671;SDS011;3372;48.690;12.362;2024-01-15T03:44:02;26.20;;;11.85;;
6671;SDS011;3372;48.690;12.362;2024-01-15T03:46:27;25.85;;;11.57;;
6671;SDS011;3372;48.690;12.362;2024-01-15T03:48:53;27.10;;;12.65;;
6671;SDS011;3372;48.690;12.362;2024-01-15T03:51:19;26.15;;;11.88;;
6671;SDS011;3372;48.690;12.362;2024-01-15T03:53:44;27.60;;;11.50;;
6671;SDS011;3372;48.690;12.362;2024-01-15T03:56:10;23.90;;;11.15;;
6671;SDS011;3372;48.690;12.362;2024-01-15T03:58:36;27.35;;;10.43;;
6671;SDS011;3372;48.690;12.362;2024-01-15T04:01:01;27.63;;;12.40;;
6671;SDS011;3372;48.690;12.362;2024-01-15T04:03:27;25.17;;;12.18;;
6671;SDS011;3372;48.690;12.362;2024-01-15T04:05:53;24.25;;;11.18;;
6671;SDS011;3372;48.690;12.362;2024-01-15T04:08:18;23.33;;;11.18;;
6671;SDS011;3372;48.690;12.362;2024-01-15T04:10:44;24.65;;;10.52;;
6671;SDS011;3372;48.690;12.362;2024-01-15T04:13:09;24.10;;;11.45;;
6671;SDS011;3372;48.690;12.362;2024-01-15T04:15:35;23.67;;;10.27;;
6671;SDS011;3372;48.690;12.362;2024-01-15T04:18:01;22.52;;;10.13;;
6671;SDS011;3372;48.690;12.362;2024-01-15T04:20:27;24.25;;;10.77;;
6671;SDS011;3372;48.690;12.362;2024-01-15T04:22:53;25.45;;;10.68;;
6671;SDS011;3372;48.690;12.362;2024-01-15T04:25:18;27.98;;;11.32;;
6671;SDS011;3372;48.690;12.362;2024-01-15T04:27:44;21.13;;;9.63;;
6671;SDS011;3372;48.690;12.362;2024-01-15T04:30:10;23.85;;;10.20;;
6671;SDS011;3372;48.690;12.362;2024-01-15T04:32:36;23.27;;;10.43;;
6671;SDS011;3372;48.690;12.362;2024-01-15T04:35:01;24.58;;;11.55;;
6671;SDS011;3372;48.690;12.362;2024-01-15T04:37:27;23.67;;;10.25;;
6671;SDS011;3372;48.690;12.362;2024-01-15T04:39:52;25.40;;;10.48;;
6671;SDS011;3372;48.690;12.362;2024-01-15T04:42:20;21.23;;;10.32;;
6671;SDS011;3372;48.690;12.362;2024-01-15T04:44:46;22.35;;;10.30;;
6671;SDS011;3372;48.690;12.362;2024-01-15T04:47:12;24.52;;;10.93;;
6671;SDS011;3372;48.690;12.362;2024-01-15T04:49:37;22.17;;;10.13;;
6671;SDS011;3372;48.690;12.362;2024-01-15T04:52:03;23.35;;;10.68;;
6671;SDS011;3372;48.690;12.362;2024-01-15T04:54:28;20.88;;;9.90;;
6671;SDS011;3372;48.690;12.362;2024-01-15T04:56:54;21.58;;;9.95;;
6671;SDS011;3372;48.690;12.362;2024-01-15T04:59:19;22.30;;;9.73;;
6671;SDS011;3372;48.690;12.362;2024-01-15T05:01:45;19.95;;;9.45;;
6671;SDS011;3372;48.690;12.362;2024-01-15T05:04:10;22.27;;;9.88;;
6671;SDS011;3372;48.690;12.362;2024-01-15T05:06:36;19.75;;;8.95;;
6671;SDS011;3372;48.690;12.362;2024-01-15T05:09:02;20.33;;;9.40;;
6671;SDS011;3372;48.690;12.362;2024-01-15T05:11:29;21.33;;;9.85;;
6671;SDS011;3372;48.690;12.362;2024-01-15T05:13:54;20.98;;;10.27;;
6671;SDS011;3372;48.690;12.362;2024-01-15T05:16:20;17.48;;;9.05;;
6671;SDS011;3372;48.690;12.362;2024-01-15T05:18:45;22.38;;;9.93;;
6671;SDS011;3372;48.690;12.362;2024-01-15T05:21:11;23.30;;;10.00;;
6671;SDS011;3372;48.690;12.362;2024-01-15T05:23:37;19.55;;;10.02;;
6671;SDS011;3372;48.690;12.362;2024-01-15T05:26:03;17.58;;;8.48;;
6671;SDS011;3372;48.690;12.362;2024-01-15T05:28:29;23.40;;;9.27;;
6671;SDS011;3372;48.690;12.362;2024-01-15T05:30:54;22.00;;;10.43;;
6671;SDS011;3372;48.690;12.362;2024-01-15T05:33:21;15.93;;;8.27;;
6671;SDS011;3372;48.690;12.362;2024-01-15T05:35:49;19.75;;;8.60;;
6671;SDS011;3372;48.690;12.362;2024-01-15T05:38:15;20.35;;;8.82;;
6671;SDS011;3372;48.690;12.362;2024-01-15T05:40:41;16.95;;;8.32;;
6671;SDS011;3372;48.690;12.362;2024-01-15T05:43:07;22.13;;;8.88;;
6671;SDS011;3372;48.690;12.362;2024-01-15T05:45:34;16.63;;;8.05;;
6671;SDS011;3372;48.690;12.362;2024-01-15T05:48:00;17.92;;;8.00;;
6671;SDS011;3372;48.690;12.362;2024-01-15T05:50:26;14.90;;;6.72;;
6671;SDS011;3372;48.690;12.362;2024-01-15T05:52:51;13.88;;;7.30;;
6671;SDS011;3372;48.690;12.362;2024-01-15T05:55:17;16.40;;;7.90;;
6671;SDS011;3372;48.690;12.362;2024-01-15T05:57:43;17.15;;;7.95;;
6671;SDS011;3372;48.690;12.362;2024-01-15T06:00:09;15.73;;;6.85;;
6671;SDS011;3372;48.690;12.362;2024-01-15T06:02:39;13.70;;;6.47;;
6671;SDS011;3372;48.690;12.362;2024-01-15T06:05:05;13.40;;;6.60;;
6671;SDS011;3372;48.690;12.362;2024-01-15T06:07:31;15.60;;;6.95;;
6671;SDS011;3372;48.690;12.362;2024-01-15T06:09:57;13.77;;;6.20;;
6671;SDS011;3372;48.690;12.362;2024-01-15T06:12:23;13.90;;;7.68;;
6671;SDS011;3372;48.690;12.362;2024-01-15T06:14:48;14.07;;;6.38;;
6671;SDS011;3372;48.690;12.362;2024-01-15T06:17:14;10.63;;;6.03;;
6671;SDS011;3372;48.690;12.362;2024-01-15T06:19:39;12.82;;;6.45;;
6671;SDS011;3372;48.690;12.362;2024-01-15T06:22:05;13.55;;;6.15;;
6671;SDS011;3372;48.690;12.362;2024-01-15T06:24:30;12.60;;;5.95;;
6671;SDS011;3372;48.690;12.362;2024-01-15T06:26:56;10.70;;;5.72;;
6671;SDS011;3372;48.690;12.362;2024-01-15T06:29:22;13.30;;;5.60;;
6671;SDS011;3372;48.690;12.362;2024-01-15T06:31:50;11.52;;;5.07;;
6671;SDS011;3372;48.690;12.362;2024-01-15T06:34:16;9.25;;;5.15;;
6671;SDS011;3372;48.690;12.362;2024-01-15T06:36:41;10.95;;;5.40;;
6671;SDS011;3372;48.690;12.362;2024-01-15T06:39:07;12.10;;;6.45;;
6671;SDS011;3372;48.690;12.362;2024-01-15T06:41:33;19.63;;;7.88;;
6671;SDS011;3372;48.690;12.362;2024-01-15T06:43:59;34.03;;;14.73;;
6671;SDS011;3372;48.690;12.362;2024-01-15T06:46:24;16.33;;;6.60;;
6671;SDS011;3372;48.690;12.362;2024-01-15T06:48:50;43.95;;;20.10;;
6671;SDS011;3372;48.690;12.362;2024-01-15T06:51:15;29.55;;;14.35;;
6671;SDS011;3372;48.690;12.362;2024-01-15T06:53:41;17.27;;;8.77;;
6671;SDS011;3372;48.690;12.362;2024-01-15T06:56:06;10.75;;;5.63;;
6671;SDS011;3372;48.690;12.362;2024-01-15T06:58:32;9.02;;;5.28;;
6671;SDS011;3372;48.690;12.362;2024-01-15T07:00:58;9.00;;;3.88;;
6671;SDS011;3372;48.690;12.362;2024-01-15T07:03:24;8.90;;;4.70;;
6671;SDS011;3372;48.690;12.362;2024-01-15T07:05:49;8.95;;;4.45;;
6671;SDS011;3372;48.690;12.362;2024-01-15T07:08:15;11.10;;;4.93;;
6671;SDS011;3372;48.690;12.362;2024-01-15T07:10:40;8.20;;;3.75;;
6671;SDS011;3372;48.690;12.362;2024-01-15T07:13:06;8.00;;;4.18;;
6671;SDS011;3372;48.690;12.362;2024-01-15T07:15:31;10.23;;;4.35;;
6671;SDS011;3372;48.690;12.362;2024-01-15T07:17:57;10.32;;;5.55;;
6671;SDS011;3372;48.690;12.362;2024-01-15T07:20:23;7.65;;;4.40;;
6671;SDS011;3372;48.690;12.362;2024-01-15T07:22:48;6.57;;;4.07;;
6671;SDS011;3372;48.690;12.362;2024-01-15T07:25:15;7.15;;;3.55;;
6671;SDS011;3372;48.690;12.362;2024-01-15T07:27:41;7.90;;;5.00;;
6671;SDS011;3372;48.690;12.362;2024-01-15T07:30:09;9.07;;;3.90;;
6671;SDS011;3372;48.690;12.362;2024-01-15T07:32:38;11.27;;;4.80;;
6671;SDS011;3372;48.690;12.362;2024-01-15T07:35:04;13.43;;;5.63;;
6671;SDS011;3372;48.690;12.362;2024-01-15T07:37:30;9.88;;;4.85;;
6671;SDS011;3372;48.690;12.362;2024-01-15T07:39:57;7.60;;;3.80;;
6671;SDS011;3372;48.690;12.362;2024-01-15T07:42:23;9.27;;;4.47;;
6671;SDS011;3372;48.690;12.362;2024-01-15T07:44:48;7.72;;;3.97;;
6671;SDS011;3372;48.690;12.362;2024-01-15T07:47:16;7.38;;;4.15;;
6671;SDS011;3372;48.690;12.362;2024-01-15T07:49:41;10.70;;;4.82;;
6671;SDS011;3372;48.690;12.362;2024-01-15T07:52:07;8.23;;;5.25;;
6671;SDS011;3372;48.690;12.362;2024-01-15T07:54:33;7.10;;;4.35;;
6671;SDS011;3372;48.690;12.362;2024-01-15T07:56:59;7.85;;;3.50;;
6671;SDS011;3372;48.690;12.362;2024-01-15T08:01:52;11.43;;;7.28;;
6671;SDS011;3372;48.690;12.362;2024-01-15T08:04:18;24.83;;;13.48;;
6671;SDS011;3372;48.690;12.362;2024-01-15T08:06:44;21.65;;;12.13;;
6671;SDS011;3372;48.690;12.362;2024-01-15T08:09:10;21.45;;;11.00;;
6671;SDS011;3372;48.690;12.362;2024-01-15T08:11:40;12.63;;;7.80;;
6671;SDS011;3372;48.690;12.362;2024-01-15T08:14:07;10.32;;;4.20;;
6671;SDS011;3372;48.690;12.362;2024-01-15T08:16:33;7.13;;;4.05;;
6671;SDS011;3372;48.690;12.362;2024-01-15T08:18:58;7.45;;;3.30;;
6671;SDS011;3372;48.690;12.362;2024-01-15T08:21:24;6.78;;;3.20;;
6671;SDS011;3372;48.690;12.362;2024-01-15T08:23:51;7.63;;;3.22;;
6671;SDS011;3372;48.690;12.362;2024-01-15T08:26:17;6.65;;;2.92;;
6671;SDS011;3372;48.690;12.362;2024-01-15T08:28:42;6.25;;;3.17;;
6671;SDS011;3372;48.690;12.362;2024-01-15T08:31:08;6.18;;;3.10;;
6671;SDS011;3372;48.690;12.362;2024-01-15T08:33:34;5.20;;;3.08;;
6671;SDS011;3372;48.690;12.362;2024-01-15T08:36:01;7.57;;;3.67;;
6671;SDS011;3372;48.690;12.362;2024-01-15T08:38:26;7.22;;;3.20;;
6671;SDS011;3372;48.690;12.362;2024-01-15T08:40:52;6.97;;;3.17;;
6671;SDS011;3372;48.690;12.362;2024-01-15T08:43:18;8.25;;;3.30;;
6671;SDS011;3372;48.690;12.362;2024-01-15T08:45:44;8.00;;;3.85;;
6671;SDS011;3372;48.690;12.362;2024-01-15T08:48:10;7.32;;;3.65;;
6671;SDS011;3372;48.690;12.362;2024-01-15T08:50:37;5.95;;;3.22;;
6671;SDS011;3372;48.690;12.362;2024-01-15T08:53:03;8.00;;;3.63;;
6671;SDS011;3372;48.690;12.362;2024-01-15T08:55:30;8.85;;;3.83;;
6671;SDS011;3372;48.690;12.362;2024-01-15T08:57:56;7.90;;;3.70;;
6671;SDS011;3372;48.690;12.362;2024-01-15T09:00:21;9.02;;;4.32;;
6671;SDS011;3372;48.690;12.362;2024-01-15T09:02:47;12.65;;;7.18;;
6671;SDS011;3372;48.690;12.362;2024-01-15T09:05:12;21.92;;;10.32;;
6671;SDS011;3372;48.690;12.362;2024-01-15T09:07:38;10.60;;;4.78;;
6671;SDS011;3372;48.690;12.362;2024-01-15T09:10:04;6.50;;;3.03;;
6671;SDS011;3372;48.690;12.362;2024-01-15T09:12:30;8.32;;;3.38;;
6671;SDS011;3372;48.690;12.362;2024-01-15T09:14:55;6.70;;;3.30;;
6671;SDS011;3372;48.690;12.362;2024-01-15T09:17:21;11.43;;;6.05;;
6671;SDS011;3372;48.690;12.362;2024-01-15T09:19:48;6.72;;;3.17;;
6671;SDS011;3372;48.690;12.362;2024-01-15T09:22:14;7.10;;;3.45;;
6671;SDS011;3372;48.690;12.362;2024-01-15T09:24:43;9.75;;;3.22;;
6671;SDS011;3372;48.690;12.362;2024-01-15T09:27:09;6.85;;;3.50;;
6671;SDS011;3372;48.690;12.362;2024-01-15T09:29:34;7.78;;;3.70;;
6671;SDS011;3372;48.690;12.362;2024-01-15T09:32:02;8.82;;;3.25;;
6671;SDS011;3372;48.690;12.362;2024-01-15T09:34:29;8.18;;;3.97;;
6671;SDS011;3372;48.690;12.362;2024-01-15T09:36:55;6.75;;;3.03;;
6671;SDS011;3372;48.690;12.362;2024-01-15T09:39:20;5.95;;;2.85;;
6671;SDS011;3372;48.690;12.362;2024-01-15T09:41:47;6.38;;;2.90;;
6671;SDS011;3372;48.690;12.362;2024-01-15T09:44:13;8.55;;;4.63;;
6671;SDS011;3372;48.690;12.362;2024-01-15T09:46:39;12.88;;;7.22;;
6671;SDS011;3372;48.690;12.362;2024-01-15T09:49:06;11.95;;;6.78;;
6671;SDS011;3372;48.690;12.362;2024-01-15T09:51:32;10.52;;;5.63;;
6671;SDS011;3372;48.690;12.362;2024-01-15T09:53:57;14.45;;;6.72;;
6671;SDS011;3372;48.690;12.362;2024-01-15T09:56:27;12.02;;;4.82;;
6671;SDS011;3372;48.690;12.362;2024-01-15T09:58:53;11.00;;;5.40;;
6671;SDS011;3372;48.690;12.362;2024-01-15T10:01:22;7.13;;;3.83;;
6671;SDS011;3372;48.690;12.362;2024-01-15T10:03:48;6.60;;;3.85;;
6671;SDS011;3372;48.690;12.362;2024-01-15T10:06:15;7.00;;;3.42;;
6671;SDS011;3372;48.690;12.362;2024-01-15T10:08:48;7.93;;;3.65;;
6671;SDS011;3372;48.690;12.362;2024-01-15T10:11:14;7.35;;;4.07;;
6671;SDS011;3372;48.690;12.362;2024-01-15T10:13:41;7.95;;;3.65;;
6671;SDS011;3372;48.690;12.362;2024-01-15T10:16:11;7.10;;;3.58;;
6671;SDS011;3372;48.690;12.362;2024-01-15T10:18:37;7.60;;;3.30;;
6671;SDS011;3372;48.690;12.362;2024-01-15T10:21:05;5.25;;;3.03;;
6671;SDS011;3372;48.690;12.362;2024-01-15T10:23:32;5.80;;;2.65;;
6671;SDS011;3372;48.690;12.362;2024-01-15T10:25:58;6.65;;;3.10;;
6671;SDS011;3372;48.690;12.362;2024-01-15T10:28:25;7.63;;;3.80;;
6671;SDS011;3372;48.690;12.362;2024-01-15T10:30:52;7.72;;;3.33;;
6671;SDS011;3372;48.690;12.362;2024-01-15T10:33:27;6.38;;;3.45;;
6671;SDS011;3372;48.690;12.362;2024-01-15T10:35:53;8.23;;;3.65;;
6671;SDS011;3372;48.690;12.362;2024-01-15T10:38:23;6.57;;;3.25;;
6671;SDS011;3372;48.690;12.362;2024-01-15T10:40:52;5.53;;;2.88;;
6671;SDS011;3372;48.690;12.362;2024-01-15T10:43:18;6.10;;;2.55;;
6671;SDS011;3372;48.690;12.362;2024-01-15T10:45:46;4.90;;;3.10;;
6671;SDS011;3372;48.690;12.362;2024-01-15T10:48:12;6.65;;;2.70;;
6671;SDS011;3372;48.690;12.362;2024-01-15T10:50:38;8.05;;;3.28;;
6671;SDS011;3372;48.690;12.362;2024-01-15T10:53:04;4.85;;;1.98;;
6671;SDS011;3372;48.690;12.362;2024-01-15T10:55:31;6.03;;;2.78;;
6671;SDS011;3372;48.690;12.362;2024-01-15T10:57:58;5.75;;;2.72;;
6671;SDS011;3372;48.690;12.362;2024-01-15T11:00:25;4.13;;;2.40;;
6671;SDS011;3372;48.690;12.362;2024-01-15T11:02:52;5.70;;;2.63;;
6671;SDS011;3372;48.690;12.362;2024-01-15T11:05:20;5.90;;;2.83;;
6671;SDS011;3372;48.690;12.362;2024-01-15T11:07:48;4.85;;;2.60;;
6671;SDS011;3372;48.690;12.362;2024-01-15T11:15:56;4.38;;;2.55;;
6671;SDS011;3372;48.690;12.362;2024-01-15T11:18:23;5.53;;;3.22;;
6671;SDS011;3372;48.690;12.362;2024-01-15T11:23:45;7.15;;;4.78;;
6671;SDS011;3372;48.690;12.362;2024-01-15T11:29:03;11.88;;;4.75;;
6671;SDS011;3372;48.690;12.362;2024-01-15T11:34:05;5.88;;;2.72;;
6671;SDS011;3372;48.690;12.362;2024-01-15T11:42:09;6.43;;;2.47;;
6671;SDS011;3372;48.690;12.362;2024-01-15T11:44:37;5.38;;;2.47;;
6671;SDS011;3372;48.690;12.362;2024-01-15T11:47:10;5.28;;;2.85;;
6671;SDS011;3372;48.690;12.362;2024-01-15T11:52:24;6.10;;;2.67;;
6671;SDS011;3372;48.690;12.362;2024-01-15T11:57:22;5.22;;;2.72;;
6671;SDS011;3372;48.690;12.362;2024-01-15T11:59:56;6.93;;;3.00;;
6671;SDS011;3372;48.690;12.362;2024-01-15T12:02:21;7.63;;;2.72;;
6671;SDS011;3372;48.690;12.362;2024-01-15T12:04:47;6.05;;;2.85;;
6671;SDS011;3372;48.690;12.362;2024-01-15T12:07:13;6.85;;;2.40;;
6671;SDS011;3372;48.690;12.362;2024-01-15T12:09:45;5.30;;;2.65;;
6671;SDS011;3372;48.690;12.362;2024-01-15T12:12:11;12.93;;;4.38;;
6671;SDS011;3372;48.690;12.362;2024-01-15T12:14:48;7.63;;;3.50;;
6671;SDS011;3372;48.690;12.362;2024-01-15T12:17:14;5.68;;;2.38;;
6671;SDS011;3372;48.690;12.362;2024-01-15T12:19:40;7.13;;;3.40;;
6671;SDS011;3372;48.690;12.362;2024-01-15T12:22:05;5.65;;;2.75;;
6671;SDS011;3372;48.690;12.362;2024-01-15T12:24:32;7.65;;;3.00;;
6671;SDS011;3372;48.690;12.362;2024-01-15T12:26:57;5.80;;;2.80;;
6671;SDS011;3372;48.690;12.362;2024-01-15T12:29:23;5.55;;;3.10;;
6671;SDS011;3372;48.690;12.362;2024-01-15T12:31:48;4.85;;;2.28;;
6671;SDS011;3372;48.690;12.362;2024-01-15T12:34:14;5.10;;;2.50;;
6671;SDS011;3372;48.690;12.362;2024-01-15T12:36:40;5.90;;;2.95;;
6671;SDS011;3372;48.690;12.362;2024-01-15T12:39:05;6.13;;;2.15;;
6671;SDS011;3372;48.690;12.362;2024-01-15T12:41:36;7.65;;;3.60;;
6671;SDS011;3372;48.690;12.362;2024-01-15T12:44:02;7.03;;;3.70;;
6671;SDS011;3372;48.690;12.362;2024-01-15T12:46:29;8.00;;;3.92;;
6671;SDS011;3372;48.690;12.362;2024-01-15T12:48:55;6.40;;;2.75;;
6671;SDS011;3372;48.690;12.362;2024-01-15T12:51:24;6.05;;;2.47;;
6671;SDS011;3372;48.690;12.362;2024-01-15T12:53:51;6.03;;;3.25;;
6671;SDS011;3372;48.690;12.362;2024-01-15T12:56:17;5.95;;;2.50;;
6671;SDS011;3372;48.690;12.362;2024-01-15T12:58:42;5.40;;;2.65;;
6671;SDS011;3372;48.690;12.362;2024-01-15T13:01:08;4.07;;;1.88;;
6671;SDS011;3372;48.690;12.362;2024-01-15T13:03:34;5.05;;;2.47;;
6671;SDS011;3372;48.690;12.362;2024-01-15T13:06:00;7.55;;;2.53;;
6671;SDS011;3372;48.690;12.362;2024-01-15T13:08:25;4.85;;;2.35;;
6671;SDS011;3372;48.690;12.362;2024-01-15T13:10:53;5.82;;;3.22;;
6671;SDS011;3372;48.690;12.362;2024-01-15T13:13:22;3.75;;;2.53;;
6671;SDS011;3372;48.690;12.362;2024-01-15T13:15:47;4.80;;;2.47;;
6671;SDS011;3372;48.690;12.362;2024-01-15T13:18:13;6.97;;;2.40;;
6671;SDS011;3372;48.690;12.362;2024-01-15T13:20:39;7.10;;;2.40;;
6671;SDS011;3372;48.690;12.362;2024-01-15T13:23:04;4.43;;;2.63;;
6671;SDS011;3372;48.690;12.362;2024-01-15T13:25:30;5.35;;;1.85;;
6671;SDS011;3372;48.690;12.362;2024-01-15T13:27:57;3.45;;;1.92;;
6671;SDS011;3372;48.690;12.362;2024-01-15T13:30:22;5.32;;;2.80;;
6671;SDS011;3372;48.690;12.362;2024-01-15T13:32:48;6.80;;;2.30;;
6671;SDS011;3372;48.690;12.362;2024-01-15T13:35:13;4.35;;;2.17;;
6671;SDS011;3372;48.690;12.362;2024-01-15T13:37:39;5.00;;;1.42;;
6671;SDS011;3372;48.690;12.362;2024-01-15T13:40:06;5.32;;;2.08;;
6671;SDS011;3372;48.690;12.362;2024-01-15T13:42:34;4.65;;;2.35;;
6671;SDS011;3372;48.690;12.362;2024-01-15T13:45:03;4.97;;;1.92;;
6671;SDS011;3372;48.690;12.362;2024-01-15T13:47:31;4.05;;;2.25;;
6671;SDS011;3372;48.690;12.362;2024-01-15T13:49:56;4.88;;;2.38;;
6671;SDS011;3372;48.690;12.362;2024-01-15T13:52:22;4.28;;;2.00;;
6671;SDS011;3372;48.690;12.362;2024-01-15T13:54:48;5.18;;;2.03;;
6671;SDS011;3372;48.690;12.362;2024-01-15T13:57:14;4.80;;;1.60;;
6671;SDS011;3372;48.690;12.362;2024-01-15T13:59:39;5.05;;;1.67;;
6671;SDS011;3372;48.690;12.362;2024-01-15T14:02:05;5.32;;;1.90;;
6671;SDS011;3372;48.690;12.362;2024-01-15T14:04:30;6.03;;;3.42;;
6671;SDS011;3372;48.690;12.362;2024-01-15T14:06:56;4.32;;;1.52;;
6671;SDS011;3372;48.690;12.362;2024-01-15T14:09:21;3.83;;;1.90;;
6671;SDS011;3372;48.690;12.362;2024-01-15T14:11:47;8.07;;;2.25;;
6671;SDS011;3372;48.690;12.362;2024-01-15T14:14:13;4.63;;;2.33;;
6671;SDS011;3372;48.690;12.362;2024-01-15T14:16:39;6.07;;;2.30;;
6671;SDS011;3372;48.690;12.362;2024-01-15T14:19:05;5.40;;;2.47;;
6671;SDS011;3372;48.690;12.362;2024-01-15T14:21:34;6.13;;;2.35;;
6671;SDS011;3372;48.690;12.362;2024-01-15T14:24:00;5.55;;;2.35;;
6671;SDS011;3372;48.690;12.362;2024-01-15T14:26:26;11.02;;;4.18;;
6671;SDS011;3372;48.690;12.362;2024-01-15T14:28:51;4.68;;;2.33;;
6671;SDS011;3372;48.690;12.362;2024-01-15T14:31:17;3.58;;;1.85;;
6671;SDS011;3372;48.690;12.362;2024-01-15T14:33:43;5.25;;;2.00;;
6671;SDS011;3372;48.690;12.362;2024-01-15T14:36:08;5.45;;;2.42;;
6671;SDS011;3372;48.690;12.362;2024-01-15T14:38:34;9.20;;;2.50;;
6671;SDS011;3372;48.690;12.362;2024-01-15T14:41:00;8.13;;;3.85;;
6671;SDS011;3372;48.690;12.362;2024-01-15T14:43:29;5.30;;;2.88;;
6671;SDS011;3372;48.690;12.362;2024-01-15T14:45:58;7.28;;;4.15;;
6671;SDS011;3372;48.690;12.362;2024-01-15T14:48:25;8.45;;;3.83;;
6671;SDS011;3372;48.690;12.362;2024-01-15T14:50:53;6.93;;;2.88;;
6671;SDS011;3372;48.690;12.362;2024-01-15T14:53:24;5.95;;;2.80;;
6671;SDS011;3372;48.690;12.362;2024-01-15T14:55:50;6.95;;;2.60;;
6671;SDS011;3372;48.690;12.362;2024-01-15T14:58:16;5.47;;;3.08;;
6671;SDS011;3372;48.690;12.362;2024-01-15T15:00:41;3.90;;;2.42;;
6671;SDS011;3372;48.690;12.362;2024-01-15T15:03:07;4.93;;;3.40;;
6671;SDS011;3372;48.690;12.362;2024-01-15T15:05:32;6.72;;;2.85;;
6671;SDS011;3372;48.690;12.362;2024-01-15T15:07:58;6.68;;;2.75;;
6671;SDS011;3372;48.690;12.362;2024-01-15T15:10:24;5.07;;;2.55;;